Accueil
METAR-TAF:

METAR-TAF

Aéroports :

Base aérienne 116 Luxeuil-Saint Sauveur

Luxeuil-les-Bains, France

latitude: 47-47N, longitude: 006-21E, altitude: 278 m

Observation

Le bulletin a été fait il y a 12 minutes, à 22:00 UTC
Vent 4 kt de ouest/nord-ouest
Température 20°C
Humidité 73%
Pression 1018 hPa
Visibilité 10 km ou plus
pas de nuages en-dessous de 1500 mètres et pas de cumulonimbus.

METAR: LFSX 212200Z AUTO 29004KT CAVOK 20/15 Q1018 NOSIG

Heure: 00:12 (22:12 UTC)

Prévision

Le bulletin a été fait il y a 2 heures et 12 minutes, à 20:00 UTC
Prévision valable du 21 à 21 UTC au 22 à 21 UTC
Vent 7 kt de direction variable
Visibilité 10 km ou plus
pas de nuages en-dessous de 1500 mètres et pas de cumulonimbus.
Temporairement
du 22 à 14 UTC au 22 à 18 UTC
Nuages épars à une hauteur de 7000 ft, Cumulus congestus.

TAF: LFSX 212000Z 2121/2221 VRB07KT CAVOK TEMPO 2214/2218 SCT070TCU

Observations et prévisions météorologiques de plus de 4000 aéroports (messages METAR et TAF).

Les stations disponibles sont représentées par des disques jaunes et rouges sur la carte.

Passer la souris dessus pour voir le nom de la station.

Cliquer dessus pour voir les observations et prévisions météorologiques.

Pour changer de carte: cliquez sur les boutons verts avec une croix noire pour zoomer, sur le bouton vert avec un tiret pour effectuer un zoom arrière, ou sur les flèches vertes pour les cartes adjacentes.


METAR-TAF: